sensor_id;sensor_type;location;lat;lon;timestamp;P1;durP1;ratioP1;P2;durP2;ratioP2
74064;SDS011;62421;51.412;5.432;2023-04-09T00:01:19;69.03;;;34.00;;
74064;SDS011;62421;51.412;5.432;2023-04-09T00:03:44;64.53;;;33.53;;
74064;SDS011;62421;51.412;5.432;2023-04-09T00:06:10;67.93;;;34.00;;
74064;SDS011;62421;51.412;5.432;2023-04-09T00:08:36;66.78;;;34.33;;
74064;SDS011;62421;51.412;5.432;2023-04-09T00:11:01;66.60;;;34.47;;
74064;SDS011;62421;51.412;5.432;2023-04-09T00:13:27;64.93;;;35.00;;
74064;SDS011;62421;51.412;5.432;2023-04-09T00:15:52;69.07;;;35.57;;
74064;SDS011;62421;51.412;5.432;2023-04-09T00:18:17;67.60;;;35.87;;
74064;SDS011;62421;51.412;5.432;2023-04-09T00:20:43;65.37;;;33.83;;
74064;SDS011;62421;51.412;5.432;2023-04-09T00:23:08;65.47;;;33.87;;
74064;SDS011;62421;51.412;5.432;2023-04-09T00:25:34;70.20;;;37.07;;
74064;SDS011;62421;51.412;5.432;2023-04-09T00:28:00;76.78;;;39.15;;
74064;SDS011;62421;51.412;5.432;2023-04-09T00:30:27;69.43;;;34.40;;
74064;SDS011;62421;51.412;5.432;2023-04-09T00:32:53;66.47;;;34.88;;
74064;SDS011;62421;51.412;5.432;2023-04-09T00:35:19;68.83;;;35.17;;
74064;SDS011;62421;51.412;5.432;2023-04-09T00:37:44;70.10;;;35.63;;
74064;SDS011;62421;51.412;5.432;2023-04-09T00:40:09;67.03;;;33.33;;
74064;SDS011;62421;51.412;5.432;2023-04-09T00:42:35;68.03;;;35.17;;
74064;SDS011;62421;51.412;5.432;2023-04-09T00:45:01;62.17;;;32.93;;
74064;SDS011;62421;51.412;5.432;2023-04-09T00:47:28;63.08;;;32.10;;
74064;SDS011;62421;51.412;5.432;2023-04-09T00:49:54;60.63;;;32.78;;
74064;SDS011;62421;51.412;5.432;2023-04-09T00:52:21;59.08;;;32.28;;
74064;SDS011;62421;51.412;5.432;2023-04-09T00:54:49;64.60;;;33.15;;
74064;SDS011;62421;51.412;5.432;2023-04-09T00:57:16;59.77;;;31.43;;
74064;SDS011;62421;51.412;5.432;2023-04-09T00:59:42;60.38;;;31.75;;
74064;SDS011;62421;51.412;5.432;2023-04-09T01:02:08;61.72;;;32.15;;
74064;SDS011;62421;51.412;5.432;2023-04-09T01:04:34;58.10;;;31.67;;
74064;SDS011;62421;51.412;5.432;2023-04-09T01:07:04;60.50;;;31.65;;
74064;SDS011;62421;51.412;5.432;2023-04-09T01:09:41;58.97;;;32.05;;
74064;SDS011;62421;51.412;5.432;2023-04-09T01:12:47;52.88;;;28.90;;
74064;SDS011;62421;51.412;5.432;2023-04-09T01:15:17;57.53;;;30.30;;
74064;SDS011;62421;51.412;5.432;2023-04-09T01:17:51;52.70;;;28.73;;
74064;SDS011;62421;51.412;5.432;2023-04-09T01:30:49;57.70;;;29.37;;
74064;SDS011;62421;51.412;5.432;2023-04-09T01:33:21;55.35;;;29.13;;
74064;SDS011;62421;51.412;5.432;2023-04-09T01:35:48;56.60;;;29.33;;
74064;SDS011;62421;51.412;5.432;2023-04-09T01:38:16;55.92;;;28.90;;
74064;SDS011;62421;51.412;5.432;2023-04-09T01:40:43;53.60;;;28.48;;
74064;SDS011;62421;51.412;5.432;2023-04-09T01:43:09;60.83;;;28.33;;
74064;SDS011;62421;51.412;5.432;2023-04-09T01:45:36;56.88;;;30.35;;
74064;SDS011;62421;51.412;5.432;2023-04-09T01:48:02;58.08;;;30.48;;
74064;SDS011;62421;51.412;5.432;2023-04-09T01:50:28;57.75;;;29.83;;
74064;SDS011;62421;51.412;5.432;2023-04-09T01:52:54;54.33;;;29.13;;
74064;SDS011;62421;51.412;5.432;2023-04-09T01:55:20;54.47;;;30.00;;
74064;SDS011;62421;51.412;5.432;2023-04-09T01:57:45;56.27;;;29.73;;
74064;SDS011;62421;51.412;5.432;2023-04-09T02:00:11;59.97;;;29.47;;
74064;SDS011;62421;51.412;5.432;2023-04-09T02:02:41;59.03;;;31.05;;
74064;SDS011;62421;51.412;5.432;2023-04-09T02:05:13;57.45;;;30.85;;
74064;SDS011;62421;51.412;5.432;2023-04-09T02:07:44;59.03;;;31.20;;
74064;SDS011;62421;51.412;5.432;2023-04-09T02:10:14;67.13;;;33.60;;
74064;SDS011;62421;51.412;5.432;2023-04-09T02:12:42;57.90;;;30.45;;
74064;SDS011;62421;51.412;5.432;2023-04-09T02:15:12;60.72;;;30.98;;
74064;SDS011;62421;51.412;5.432;2023-04-09T02:17:39;61.42;;;31.10;;
74064;SDS011;62421;51.412;5.432;2023-04-09T02:20:05;62.57;;;32.73;;
74064;SDS011;62421;51.412;5.432;2023-04-09T02:22:31;62.28;;;32.05;;
74064;SDS011;62421;51.412;5.432;2023-04-09T02:24:57;57.70;;;29.80;;
74064;SDS011;62421;51.412;5.432;2023-04-09T02:27:22;57.30;;;31.13;;
74064;SDS011;62421;51.412;5.432;2023-04-09T02:29:47;59.37;;;30.27;;
74064;SDS011;62421;51.412;5.432;2023-04-09T02:32:12;61.03;;;30.43;;
74064;SDS011;62421;51.412;5.432;2023-04-09T02:34:38;58.50;;;30.93;;
74064;SDS011;62421;51.412;5.432;2023-04-09T02:37:03;60.38;;;30.70;;
74064;SDS011;62421;51.412;5.432;2023-04-09T02:39:29;56.13;;;28.92;;
74064;SDS011;62421;51.412;5.432;2023-04-09T02:41:54;58.97;;;30.73;;
74064;SDS011;62421;51.412;5.432;2023-04-09T02:44:20;58.47;;;30.60;;
74064;SDS011;62421;51.412;5.432;2023-04-09T02:46:45;60.75;;;30.10;;
74064;SDS011;62421;51.412;5.432;2023-04-09T02:49:12;55.38;;;29.15;;
74064;SDS011;62421;51.412;5.432;2023-04-09T02:51:37;59.13;;;29.03;;
74064;SDS011;62421;51.412;5.432;2023-04-09T02:54:03;60.35;;;30.13;;
74064;SDS011;62421;51.412;5.432;2023-04-09T02:56:28;56.22;;;28.73;;
74064;SDS011;62421;51.412;5.432;2023-04-09T02:58:54;57.97;;;30.83;;
74064;SDS011;62421;51.412;5.432;2023-04-09T03:01:19;58.50;;;29.07;;
74064;SDS011;62421;51.412;5.432;2023-04-09T03:03:45;63.03;;;30.40;;
74064;SDS011;62421;51.412;5.432;2023-04-09T03:06:11;59.17;;;31.27;;
74064;SDS011;62421;51.412;5.432;2023-04-09T03:08:37;65.40;;;32.42;;
74064;SDS011;62421;51.412;5.432;2023-04-09T03:11:02;61.60;;;31.30;;
74064;SDS011;62421;51.412;5.432;2023-04-09T03:13:27;60.77;;;31.17;;
74064;SDS011;62421;51.412;5.432;2023-04-09T03:15:53;59.90;;;30.77;;
74064;SDS011;62421;51.412;5.432;2023-04-09T03:18:18;66.40;;;32.17;;
74064;SDS011;62421;51.412;5.432;2023-04-09T03:20:44;63.97;;;32.17;;
74064;SDS011;62421;51.412;5.432;2023-04-09T03:23:10;72.57;;;34.90;;
74064;SDS011;62421;51.412;5.432;2023-04-09T03:25:35;61.92;;;30.52;;
74064;SDS011;62421;51.412;5.432;2023-04-09T03:28:01;63.30;;;31.07;;
74064;SDS011;62421;51.412;5.432;2023-04-09T03:30:27;64.45;;;30.90;;
74064;SDS011;62421;51.412;5.432;2023-04-09T03:32:52;61.97;;;32.43;;
74064;SDS011;62421;51.412;5.432;2023-04-09T03:35:18;63.42;;;31.63;;
74064;SDS011;62421;51.412;5.432;2023-04-09T03:37:43;64.70;;;32.30;;
74064;SDS011;62421;51.412;5.432;2023-04-09T03:40:09;60.20;;;29.07;;
74064;SDS011;62421;51.412;5.432;2023-04-09T03:42:35;63.23;;;31.40;;
74064;SDS011;62421;51.412;5.432;2023-04-09T03:45:01;62.78;;;31.58;;
74064;SDS011;62421;51.412;5.432;2023-04-09T03:47:27;66.03;;;30.67;;
74064;SDS011;62421;51.412;5.432;2023-04-09T03:49:52;60.50;;;31.07;;
74064;SDS011;62421;51.412;5.432;2023-04-09T03:52:18;62.27;;;31.10;;
74064;SDS011;62421;51.412;5.432;2023-04-09T03:54:43;61.57;;;29.93;;
74064;SDS011;62421;51.412;5.432;2023-04-09T03:57:09;60.80;;;29.17;;
74064;SDS011;62421;51.412;5.432;2023-04-09T03:59:34;65.77;;;32.27;;
74064;SDS011;62421;51.412;5.432;2023-04-09T04:02:00;63.33;;;30.50;;
74064;SDS011;62421;51.412;5.432;2023-04-09T04:04:25;56.92;;;28.90;;
74064;SDS011;62421;51.412;5.432;2023-04-09T04:06:51;58.53;;;28.20;;
74064;SDS011;62421;51.412;5.432;2023-04-09T04:09:16;64.20;;;30.30;;
74064;SDS011;62421;51.412;5.432;2023-04-09T04:11:42;56.50;;;28.90;;
74064;SDS011;62421;51.412;5.432;2023-04-09T04:14:07;58.47;;;28.80;;
74064;SDS011;62421;51.412;5.432;2023-04-09T04:16:32;55.83;;;27.47;;
74064;SDS011;62421;51.412;5.432;2023-04-09T04:18:58;56.92;;;29.35;;
74064;SDS011;62421;51.412;5.432;2023-04-09T04:21:23;62.07;;;29.70;;
74064;SDS011;62421;51.412;5.432;2023-04-09T04:23:48;57.67;;;27.80;;
74064;SDS011;62421;51.412;5.432;2023-04-09T04:26:14;61.10;;;29.10;;
74064;SDS011;62421;51.412;5.432;2023-04-09T04:28:39;60.87;;;30.10;;
74064;SDS011;62421;51.412;5.432;2023-04-09T04:31:11;55.28;;;29.13;;
74064;SDS011;62421;51.412;5.432;2023-04-09T04:33:37;54.33;;;27.37;;
74064;SDS011;62421;51.412;5.432;2023-04-09T04:38:30;63.05;;;28.65;;
74064;SDS011;62421;51.412;5.432;2023-04-09T04:40:55;60.47;;;28.50;;
74064;SDS011;62421;51.412;5.432;2023-04-09T04:43:21;64.40;;;29.57;;
74064;SDS011;62421;51.412;5.432;2023-04-09T04:45:46;62.53;;;29.90;;
74064;SDS011;62421;51.412;5.432;2023-04-09T04:48:11;57.70;;;28.50;;
74064;SDS011;62421;51.412;5.432;2023-04-09T04:50:37;60.75;;;29.83;;
74064;SDS011;62421;51.412;5.432;2023-04-09T04:53:02;59.93;;;27.13;;
74064;SDS011;62421;51.412;5.432;2023-04-09T04:55:28;57.27;;;26.63;;
74064;SDS011;62421;51.412;5.432;2023-04-09T04:57:53;61.10;;;28.10;;
74064;SDS011;62421;51.412;5.432;2023-04-09T05:00:18;57.97;;;27.93;;
74064;SDS011;62421;51.412;5.432;2023-04-09T05:02:44;54.80;;;26.60;;
74064;SDS011;62421;51.412;5.432;2023-04-09T05:05:09;56.30;;;27.92;;
74064;SDS011;62421;51.412;5.432;2023-04-09T05:07:35;58.20;;;27.07;;
74064;SDS011;62421;51.412;5.432;2023-04-09T05:10:00;59.17;;;28.03;;
74064;SDS011;62421;51.412;5.432;2023-04-09T05:12:26;59.67;;;27.87;;
74064;SDS011;62421;51.412;5.432;2023-04-09T05:14:51;56.27;;;26.90;;
74064;SDS011;62421;51.412;5.432;2023-04-09T05:17:17;57.60;;;26.27;;
74064;SDS011;62421;51.412;5.432;2023-04-09T05:19:42;58.23;;;27.60;;
74064;SDS011;62421;51.412;5.432;2023-04-09T05:22:08;54.07;;;26.00;;
74064;SDS011;62421;51.412;5.432;2023-04-09T05:24:33;56.27;;;26.53;;
74064;SDS011;62421;51.412;5.432;2023-04-09T05:26:58;59.77;;;26.77;;
74064;SDS011;62421;51.412;5.432;2023-04-09T05:29:25;57.83;;;28.70;;
74064;SDS011;62421;51.412;5.432;2023-04-09T05:31:50;57.57;;;27.83;;
74064;SDS011;62421;51.412;5.432;2023-04-09T05:34:15;59.07;;;27.77;;
74064;SDS011;62421;51.412;5.432;2023-04-09T05:36:41;54.47;;;26.87;;
74064;SDS011;62421;51.412;5.432;2023-04-09T05:39:06;55.08;;;26.80;;
74064;SDS011;62421;51.412;5.432;2023-04-09T05:41:31;57.67;;;29.17;;
74064;SDS011;62421;51.412;5.432;2023-04-09T05:43:57;60.70;;;29.77;;
74064;SDS011;62421;51.412;5.432;2023-04-09T05:46:23;60.07;;;27.57;;
74064;SDS011;62421;51.412;5.432;2023-04-09T05:48:48;56.50;;;27.33;;
74064;SDS011;62421;51.412;5.432;2023-04-09T05:51:13;58.28;;;28.45;;
74064;SDS011;62421;51.412;5.432;2023-04-09T05:53:39;55.80;;;26.77;;
74064;SDS011;62421;51.412;5.432;2023-04-09T05:56:11;59.60;;;28.27;;
74064;SDS011;62421;51.412;5.432;2023-04-09T05:58:38;65.22;;;29.85;;
74064;SDS011;62421;51.412;5.432;2023-04-09T06:01:03;58.67;;;28.60;;
74064;SDS011;62421;51.412;5.432;2023-04-09T06:03:29;63.10;;;28.02;;
74064;SDS011;62421;51.412;5.432;2023-04-09T06:05:54;65.55;;;29.10;;
74064;SDS011;62421;51.412;5.432;2023-04-09T06:08:20;61.53;;;28.13;;
74064;SDS011;62421;51.412;5.432;2023-04-09T06:10:46;59.38;;;28.52;;
74064;SDS011;62421;51.412;5.432;2023-04-09T06:13:11;57.03;;;27.02;;
74064;SDS011;62421;51.412;5.432;2023-04-09T06:15:37;53.57;;;25.97;;
74064;SDS011;62421;51.412;5.432;2023-04-09T06:18:03;58.33;;;27.47;;
74064;SDS011;62421;51.412;5.432;2023-04-09T06:20:28;59.53;;;27.88;;
74064;SDS011;62421;51.412;5.432;2023-04-09T06:22:54;64.53;;;30.20;;
74064;SDS011;62421;51.412;5.432;2023-04-09T06:25:20;59.88;;;29.02;;
74064;SDS011;62421;51.412;5.432;2023-04-09T06:27:45;61.75;;;29.02;;
74064;SDS011;62421;51.412;5.432;2023-04-09T06:30:11;58.83;;;28.73;;
74064;SDS011;62421;51.412;5.432;2023-04-09T06:32:36;55.40;;;27.33;;
74064;SDS011;62421;51.412;5.432;2023-04-09T06:35:02;59.35;;;28.02;;
74064;SDS011;62421;51.412;5.432;2023-04-09T06:37:27;58.73;;;30.57;;
74064;SDS011;62421;51.412;5.432;2023-04-09T06:39:53;58.73;;;28.67;;
74064;SDS011;62421;51.412;5.432;2023-04-09T06:42:18;59.47;;;28.10;;
74064;SDS011;62421;51.412;5.432;2023-04-09T06:44:43;57.77;;;26.77;;
74064;SDS011;62421;51.412;5.432;2023-04-09T06:47:09;51.05;;;27.30;;
74064;SDS011;62421;51.412;5.432;2023-04-09T06:49:35;53.80;;;27.47;;
74064;SDS011;62421;51.412;5.432;2023-04-09T06:52:00;52.75;;;27.58;;
74064;SDS011;62421;51.412;5.432;2023-04-09T06:54:26;57.90;;;27.10;;
74064;SDS011;62421;51.412;5.432;2023-04-09T06:56:51;58.20;;;28.47;;
74064;SDS011;62421;51.412;5.432;2023-04-09T06:59:16;54.23;;;26.73;;
74064;SDS011;62421;51.412;5.432;2023-04-09T07:01:42;54.57;;;27.17;;
74064;SDS011;62421;51.412;5.432;2023-04-09T07:04:07;55.60;;;28.50;;
74064;SDS011;62421;51.412;5.432;2023-04-09T07:06:33;54.70;;;27.38;;
74064;SDS011;62421;51.412;5.432;2023-04-09T07:08:58;50.50;;;26.10;;
74064;SDS011;62421;51.412;5.432;2023-04-09T07:11:23;60.57;;;28.57;;
74064;SDS011;62421;51.412;5.432;2023-04-09T07:13:49;57.27;;;28.73;;
74064;SDS011;62421;51.412;5.432;2023-04-09T07:16:14;53.77;;;26.67;;
74064;SDS011;62421;51.412;5.432;2023-04-09T07:18:40;56.07;;;28.47;;
74064;SDS011;62421;51.412;5.432;2023-04-09T07:21:05;53.35;;;27.00;;
74064;SDS011;62421;51.412;5.432;2023-04-09T07:23:34;57.17;;;29.00;;
74064;SDS011;62421;51.412;5.432;2023-04-09T07:26:03;50.88;;;27.77;;
74064;SDS011;62421;51.412;5.432;2023-04-09T07:28:29;56.50;;;27.87;;
74064;SDS011;62421;51.412;5.432;2023-04-09T07:30:54;60.97;;;31.15;;
74064;SDS011;62421;51.412;5.432;2023-04-09T07:33:20;52.30;;;29.00;;
74064;SDS011;62421;51.412;5.432;2023-04-09T07:35:45;49.63;;;27.20;;
74064;SDS011;62421;51.412;5.432;2023-04-09T07:38:11;57.47;;;29.20;;
74064;SDS011;62421;51.412;5.432;2023-04-09T07:40:36;51.73;;;29.53;;
74064;SDS011;62421;51.412;5.432;2023-04-09T07:43:02;55.70;;;28.50;;
74064;SDS011;62421;51.412;5.432;2023-04-09T07:45:28;49.85;;;27.85;;
74064;SDS011;62421;51.412;5.432;2023-04-09T07:47:53;55.17;;;29.23;;
74064;SDS011;62421;51.412;5.432;2023-04-09T07:50:19;51.72;;;27.27;;
74064;SDS011;62421;51.412;5.432;2023-04-09T07:52:44;55.07;;;29.13;;
74064;SDS011;62421;51.412;5.432;2023-04-09T07:55:10;52.20;;;27.13;;
74064;SDS011;62421;51.412;5.432;2023-04-09T07:57:35;58.05;;;28.45;;
74064;SDS011;62421;51.412;5.432;2023-04-09T08:00:01;52.08;;;29.38;;
74064;SDS011;62421;51.412;5.432;2023-04-09T08:02:27;52.55;;;28.60;;
74064;SDS011;62421;51.412;5.432;2023-04-09T08:04:53;54.63;;;28.47;;
74064;SDS011;62421;51.412;5.432;2023-04-09T08:07:18;54.33;;;31.03;;
74064;SDS011;62421;51.412;5.432;2023-04-09T08:09:44;56.95;;;30.88;;
74064;SDS011;62421;51.412;5.432;2023-04-09T08:12:10;55.20;;;29.60;;
74064;SDS011;62421;51.412;5.432;2023-04-09T08:14:35;50.30;;;28.57;;
74064;SDS011;62421;51.412;5.432;2023-04-09T08:17:00;55.57;;;30.63;;
74064;SDS011;62421;51.412;5.432;2023-04-09T08:19:26;57.00;;;31.42;;
74064;SDS011;62421;51.412;5.432;2023-04-09T08:21:51;55.67;;;30.40;;
74064;SDS011;62421;51.412;5.432;2023-04-09T08:24:17;57.80;;;30.43;;
74064;SDS011;62421;51.412;5.432;2023-04-09T08:26:42;55.47;;;29.70;;
74064;SDS011;62421;51.412;5.432;2023-04-09T08:29:09;56.20;;;30.67;;
74064;SDS011;62421;51.412;5.432;2023-04-09T08:31:36;58.13;;;32.05;;
74064;SDS011;62421;51.412;5.432;2023-04-09T08:34:01;55.10;;;30.47;;
74064;SDS011;62421;51.412;5.432;2023-04-09T08:36:27;55.83;;;31.77;;
74064;SDS011;62421;51.412;5.432;2023-04-09T08:38:53;53.93;;;29.53;;
74064;SDS011;62421;51.412;5.432;2023-04-09T08:41:22;62.40;;;31.45;;
74064;SDS011;62421;51.412;5.432;2023-04-09T08:43:49;49.38;;;29.23;;
74064;SDS011;62421;51.412;5.432;2023-04-09T08:46:16;51.17;;;31.05;;
74064;SDS011;62421;51.412;5.432;2023-04-09T08:48:46;54.53;;;28.87;;
74064;SDS011;62421;51.412;5.432;2023-04-09T08:51:13;50.45;;;27.60;;
74064;SDS011;62421;51.412;5.432;2023-04-09T08:53:46;55.13;;;29.52;;
74064;SDS011;62421;51.412;5.432;2023-04-09T08:56:16;52.38;;;28.50;;
74064;SDS011;62421;51.412;5.432;2023-04-09T08:58:42;51.60;;;28.80;;
74064;SDS011;62421;51.412;5.432;2023-04-09T09:06:21;53.88;;;29.58;;
74064;SDS011;62421;51.412;5.432;2023-04-09T09:09:10;53.58;;;28.58;;
74064;SDS011;62421;51.412;5.432;2023-04-09T09:11:41;51.07;;;28.07;;
74064;SDS011;62421;51.412;5.432;2023-04-09T09:14:09;50.70;;;27.58;;
74064;SDS011;62421;51.412;5.432;2023-04-09T09:16:36;52.38;;;29.95;;
74064;SDS011;62421;51.412;5.432;2023-04-09T09:19:07;55.83;;;29.23;;
74064;SDS011;62421;51.412;5.432;2023-04-09T09:21:34;49.65;;;29.15;;
74064;SDS011;62421;51.412;5.432;2023-04-09T09:24:01;50.33;;;29.80;;
74064;SDS011;62421;51.412;5.432;2023-04-09T09:26:40;47.90;;;28.17;;
74064;SDS011;62421;51.412;5.432;2023-04-09T09:29:06;51.03;;;30.52;;
74064;SDS011;62421;51.412;5.432;2023-04-09T09:31:31;48.23;;;27.57;;
74064;SDS011;62421;51.412;5.432;2023-04-09T09:34:11;48.15;;;28.13;;
74064;SDS011;62421;51.412;5.432;2023-04-09T09:36:37;47.00;;;26.60;;
74064;SDS011;62421;51.412;5.432;2023-04-09T09:39:02;47.53;;;27.13;;
74064;SDS011;62421;51.412;5.432;2023-04-09T09:41:29;47.03;;;27.25;;
74064;SDS011;62421;51.412;5.432;2023-04-09T09:43:55;46.55;;;27.98;;
74064;SDS011;62421;51.412;5.432;2023-04-09T09:46:21;51.10;;;28.33;;
74064;SDS011;62421;51.412;5.432;2023-04-09T09:48:46;44.63;;;25.35;;
74064;SDS011;62421;51.412;5.432;2023-04-09T09:51:13;47.50;;;26.52;;
74064;SDS011;62421;51.412;5.432;2023-04-09T09:53:42;44.97;;;27.85;;
74064;SDS011;62421;51.412;5.432;2023-04-09T09:56:18;40.60;;;25.17;;
74064;SDS011;62421;51.412;5.432;2023-04-09T10:01:18;44.90;;;26.97;;
74064;SDS011;62421;51.412;5.432;2023-04-09T10:03:45;41.22;;;25.02;;
74064;SDS011;62421;51.412;5.432;2023-04-09T10:06:13;40.33;;;24.98;;
74064;SDS011;62421;51.412;5.432;2023-04-09T10:08:40;42.15;;;25.25;;
74064;SDS011;62421;51.412;5.432;2023-04-09T10:11:06;45.90;;;26.67;;
74064;SDS011;62421;51.412;5.432;2023-04-09T10:13:33;44.30;;;25.33;;
74064;SDS011;62421;51.412;5.432;2023-04-09T10:16:01;42.75;;;25.75;;
74064;SDS011;62421;51.412;5.432;2023-04-09T10:18:28;46.20;;;23.30;;
74064;SDS011;62421;51.412;5.432;2023-04-09T10:20:57;45.27;;;24.87;;
74064;SDS011;62421;51.412;5.432;2023-04-09T10:23:33;36.38;;;21.25;;
74064;SDS011;62421;51.412;5.432;2023-04-09T10:26:04;28.30;;;17.17;;
74064;SDS011;62421;51.412;5.432;2023-04-09T10:28:30;29.90;;;18.52;;
74064;SDS011;62421;51.412;5.432;2023-04-09T10:30:55;29.30;;;17.53;;
74064;SDS011;62421;51.412;5.432;2023-04-09T10:33:22;30.92;;;18.13;;
74064;SDS011;62421;51.412;5.432;2023-04-09T10:35:51;29.17;;;16.80;;
74064;SDS011;62421;51.412;5.432;2023-04-09T10:38:20;27.17;;;16.67;;
74064;SDS011;62421;51.412;5.432;2023-04-09T10:40:57;28.15;;;17.42;;
74064;SDS011;62421;51.412;5.432;2023-04-09T10:43:23;31.50;;;19.77;;
74064;SDS011;62421;51.412;5.432;2023-04-09T10:45:48;33.23;;;19.03;;
74064;SDS011;62421;51.412;5.432;2023-04-09T10:48:18;33.17;;;20.43;;
74064;SDS011;62421;51.412;5.432;2023-04-09T10:50:44;31.85;;;17.65;;
74064;SDS011;62421;51.412;5.432;2023-04-09T10:53:22;31.13;;;19.88;;
74064;SDS011;62421;51.412;5.432;2023-04-09T10:55:51;33.40;;;20.10;;
74064;SDS011;62421;51.412;5.432;2023-04-09T10:58:17;32.95;;;19.60;;
74064;SDS011;62421;51.412;5.432;2023-04-09T11:00:48;31.88;;;19.92;;
74064;SDS011;62421;51.412;5.432;2023-04-09T11:05:42;30.25;;;18.55;;
74064;SDS011;62421;51.412;5.432;2023-04-09T11:08:15;32.03;;;17.67;;
74064;SDS011;62421;51.412;5.432;2023-04-09T11:10:41;31.50;;;19.17;;
74064;SDS011;62421;51.412;5.432;2023-04-09T11:13:12;29.35;;;17.63;;
74064;SDS011;62421;51.412;5.432;2023-04-09T11:15:38;29.02;;;17.48;;
74064;SDS011;62421;51.412;5.432;2023-04-09T11:18:04;32.85;;;20.05;;
74064;SDS011;62421;51.412;5.432;2023-04-09T11:20:37;27.10;;;15.87;;
74064;SDS011;62421;51.412;5.432;2023-04-09T11:23:04;28.52;;;17.98;;
74064;SDS011;62421;51.412;5.432;2023-04-09T11:25:30;27.60;;;14.88;;
74064;SDS011;62421;51.412;5.432;2023-04-09T11:27:58;22.65;;;13.93;;
74064;SDS011;62421;51.412;5.432;2023-04-09T11:30:24;25.03;;;14.30;;
74064;SDS011;62421;51.412;5.432;2023-04-09T11:32:50;24.85;;;14.45;;
74064;SDS011;62421;51.412;5.432;2023-04-09T11:35:16;27.13;;;14.70;;
74064;SDS011;62421;51.412;5.432;2023-04-09T11:37:43;23.10;;;14.60;;
74064;SDS011;62421;51.412;5.432;2023-04-09T11:40:22;24.92;;;13.98;;
74064;SDS011;62421;51.412;5.432;2023-04-09T11:42:53;22.30;;;12.88;;
74064;SDS011;62421;51.412;5.432;2023-04-09T11:45:22;22.23;;;13.43;;
74064;SDS011;62421;51.412;5.432;2023-04-09T11:47:50;19.53;;;12.27;;
74064;SDS011;62421;51.412;5.432;2023-04-09T11:50:15;18.60;;;11.13;;
74064;SDS011;62421;51.412;5.432;2023-04-09T11:52:42;19.92;;;11.82;;
74064;SDS011;62421;51.412;5.432;2023-04-09T11:55:09;16.63;;;10.70;;
74064;SDS011;62421;51.412;5.432;2023-04-09T12:00:17;16.80;;;10.85;;
74064;SDS011;62421;51.412;5.432;2023-04-09T12:02:44;18.52;;;11.00;;
74064;SDS011;62421;51.412;5.432;2023-04-09T12:05:11;17.80;;;10.07;;
74064;SDS011;62421;51.412;5.432;2023-04-09T12:07:44;17.85;;;10.15;;
74064;SDS011;62421;51.412;5.432;2023-04-09T12:10:09;19.05;;;11.82;;
74064;SDS011;62421;51.412;5.432;2023-04-09T12:12:39;19.77;;;12.13;;
74064;SDS011;62421;51.412;5.432;2023-04-09T12:15:18;21.15;;;12.60;;
74064;SDS011;62421;51.412;5.432;2023-04-09T12:17:49;19.50;;;11.67;;
74064;SDS011;62421;51.412;5.432;2023-04-09T12:20:28;16.20;;;9.07;;
74064;SDS011;62421;51.412;5.432;2023-04-09T12:22:54;18.70;;;11.50;;
74064;SDS011;62421;51.412;5.432;2023-04-09T12:25:19;18.40;;;11.60;;
74064;SDS011;62421;51.412;5.432;2023-04-09T12:27:45;19.17;;;11.87;;
74064;SDS011;62421;51.412;5.432;2023-04-09T12:30:11;19.17;;;11.93;;
74064;SDS011;62421;51.412;5.432;2023-04-09T12:32:36;17.20;;;11.63;;
74064;SDS011;62421;51.412;5.432;2023-04-09T12:35:02;20.70;;;12.07;;
74064;SDS011;62421;51.412;5.432;2023-04-09T12:37:28;19.45;;;12.00;;
74064;SDS011;62421;51.412;5.432;2023-04-09T12:39:53;19.23;;;11.80;;
74064;SDS011;62421;51.412;5.432;2023-04-09T12:42:19;19.17;;;12.07;;
74064;SDS011;62421;51.412;5.432;2023-04-09T12:44:44;20.80;;;12.00;;
74064;SDS011;62421;51.412;5.432;2023-04-09T12:47:10;21.33;;;11.40;;
74064;SDS011;62421;51.412;5.432;2023-04-09T12:49:36;19.25;;;13.45;;
74064;SDS011;62421;51.412;5.432;2023-04-09T12:52:01;17.37;;;11.20;;
74064;SDS011;62421;51.412;5.432;2023-04-09T12:54:26;18.13;;;10.88;;
74064;SDS011;62421;51.412;5.432;2023-04-09T12:56:52;18.00;;;10.50;;
74064;SDS011;62421;51.412;5.432;2023-04-09T12:59:17;20.13;;;11.40;;
74064;SDS011;62421;51.412;5.432;2023-04-09T13:01:43;16.43;;;11.20;;
74064;SDS011;62421;51.412;5.432;2023-04-09T13:04:08;18.10;;;10.83;;
74064;SDS011;62421;51.412;5.432;2023-04-09T13:06:33;17.67;;;9.97;;
74064;SDS011;62421;51.412;5.432;2023-04-09T13:08:59;16.47;;;10.60;;
74064;SDS011;62421;51.412;5.432;2023-04-09T13:11:24;16.70;;;10.00;;
74064;SDS011;62421;51.412;5.432;2023-04-09T13:13:49;16.42;;;9.75;;
74064;SDS011;62421;51.412;5.432;2023-04-09T13:16:16;14.83;;;9.77;;
74064;SDS011;62421;51.412;5.432;2023-04-09T13:18:41;19.58;;;10.70;;
74064;SDS011;62421;51.412;5.432;2023-04-09T13:21:07;15.47;;;10.00;;
74064;SDS011;62421;51.412;5.432;2023-04-09T13:23:32;16.10;;;10.03;;
74064;SDS011;62421;51.412;5.432;2023-04-09T13:25:58;15.07;;;9.60;;
74064;SDS011;62421;51.412;5.432;2023-04-09T13:28:24;13.57;;;8.97;;
74064;SDS011;62421;51.412;5.432;2023-04-09T13:30:50;17.17;;;10.68;;
74064;SDS011;62421;51.412;5.432;2023-04-09T13:33:16;17.67;;;10.55;;
74064;SDS011;62421;51.412;5.432;2023-04-09T13:35:42;17.80;;;10.80;;
74064;SDS011;62421;51.412;5.432;2023-04-09T13:38:07;14.60;;;9.27;;
74064;SDS011;62421;51.412;5.432;2023-04-09T13:40:32;16.70;;;9.93;;
74064;SDS011;62421;51.412;5.432;2023-04-09T13:42:58;15.88;;;9.40;;
74064;SDS011;62421;51.412;5.432;2023-04-09T13:45:23;15.73;;;9.63;;
74064;SDS011;62421;51.412;5.432;2023-04-09T13:47:49;14.77;;;8.83;;
74064;SDS011;62421;51.412;5.432;2023-04-09T13:50:14;13.37;;;9.03;;
74064;SDS011;62421;51.412;5.432;2023-04-09T13:52:39;15.50;;;9.53;;
74064;SDS011;62421;51.412;5.432;2023-04-09T13:55:05;14.97;;;8.73;;
74064;SDS011;62421;51.412;5.432;2023-04-09T13:57:31;14.05;;;9.25;;
74064;SDS011;62421;51.412;5.432;2023-04-09T13:59:57;17.88;;;10.45;;
74064;SDS011;62421;51.412;5.432;2023-04-09T14:02:25;13.15;;;9.02;;
74064;SDS011;62421;51.412;5.432;2023-04-09T14:04:51;15.63;;;9.65;;
74064;SDS011;62421;51.412;5.432;2023-04-09T14:07:17;16.38;;;9.07;;
74064;SDS011;62421;51.412;5.432;2023-04-09T14:09:43;13.23;;;8.40;;
74064;SDS011;62421;51.412;5.432;2023-04-09T14:12:08;13.67;;;8.30;;
74064;SDS011;62421;51.412;5.432;2023-04-09T14:14:33;15.37;;;8.50;;
74064;SDS011;62421;51.412;5.432;2023-04-09T14:16:59;15.50;;;8.83;;
74064;SDS011;62421;51.412;5.432;2023-04-09T14:19:24;13.37;;;8.13;;
74064;SDS011;62421;51.412;5.432;2023-04-09T14:21:49;14.73;;;8.50;;
74064;SDS011;62421;51.412;5.432;2023-04-09T14:24:17;14.52;;;8.63;;
74064;SDS011;62421;51.412;5.432;2023-04-09T14:26:44;16.70;;;7.93;;
74064;SDS011;62421;51.412;5.432;2023-04-09T14:29:09;14.07;;;8.03;;
74064;SDS011;62421;51.412;5.432;2023-04-09T14:31:35;14.75;;;8.45;;
74064;SDS011;62421;51.412;5.432;2023-04-09T14:34:00;15.07;;;9.03;;
74064;SDS011;62421;51.412;5.432;2023-04-09T14:36:26;14.43;;;8.67;;
74064;SDS011;62421;51.412;5.432;2023-04-09T14:38:51;12.75;;;7.97;;
74064;SDS011;62421;51.412;5.432;2023-04-09T14:41:17;14.85;;;8.88;;
74064;SDS011;62421;51.412;5.432;2023-04-09T14:43:42;13.43;;;8.37;;
74064;SDS011;62421;51.412;5.432;2023-04-09T14:46:08;14.27;;;8.60;;